Vliegveldwaarnemingen Nederland - (AUTO) METAR

Luchtvaartmeteorologische informatie voor operationeel gebruik en vluchtvoorbereiding is beschikbaar op www.luchtvaartmeteo.nl.

ZCZC
SA130255 EHFS     VLISSINGEN AWS   NLD   8 m.
METAR EHFS 130255Z AUTO 10007KT 9999 NSC 11/08 Q1008=

ZCZC
SA130255 EHSG     BSA   NLD   43 m.
METAR EHSG 130255Z AUTO 11014KT //// // NSC 11/08 Q1008 RE//=

ZCZC
SA130325 EHKD     DE KOOY/DE KOOY   NLD   1 m.
METAR EHKD 130325Z AUTO 08005KT 9999 NCD 11/10 Q1009 BLU=

ZCZC
SA130325 EHFD     F3-FB-1   NLD   50 m.
METAR EHFD 130325Z AUTO /////KT 0350 FG VV000 06/06 Q1010 REDZ=

ZCZC
SA130325 EHAM     AMSTERDAM/SCHIPHOL   NLD   -3 m.
METAR EHAM 130325Z 05002KT 9999 MIFG NSC 06/06 Q1009 NOSIG=

ZCZC
SA130325 EHVL     VLIELAND   NLD   10 m.
METAR EHVL 130325Z AUTO 09006KT 9999 OVC100 09/08 Q1009 BLU=

ZCZC
SA130325 EHJR     K13-A   NLD   37 m.
METAR EHJR 130325Z AUTO ///12KT //// // ///////// 09/08 Q1009 RE//
W09/H5=

ZCZC
SA130325 EHLE     LELYSTAD/LELYSTAD   NLD   -3 m.
METAR EHLE 130325Z AUTO 04003KT 9999 NCD 06/06 Q1009=

ZCZC
SA130325 EHLW     LEEUWARDEN/LEEUWARDEN   NLD   1 m.
METAR EHLW 130325Z AUTO VRB02KT 5000 BR OVC092 08/08 Q1010 WHT=

ZCZC
SA130325 EHDL     ARNHEM/DEELEN   NLD   48 m.
METAR EHDL 130325Z AUTO 08002KT 1200 BR OVC230 07/06 Q1009 RE// AMB=

ZCZC
SA130325 EHGG     GRONINGEN/EELDE   NLD   5 m.
METAR EHGG 130325Z AUTO 05002KT 7000 NSC 07/07 Q1009=

ZCZC
SA130325 EHSC     LICHTEILAND GOEREE   NLD   22 m.
METAR EHSC 130325Z AUTO 09012KT 9999 ///////// 11/08 Q1008 W10/H4=

ZCZC
SA130325 EHSA     EURO PLATFORM   NLD   19 m.
METAR EHSA 130325Z AUTO 08011KT 9999 ///////// 10/09 Q1008 W10/H4=

ZCZC
SA130325 EHWO     WOENSDRECHT/WOENSDRECHT   NLD   19 m.
METAR EHWO 130325Z AUTO 07004KT 5000 BR OVC096 07/06 Q1008 WHT=

ZCZC
SA130325 EHRD     ROTTERDAM/THE HAGUE AIRPORT   NLD   -5 m.
METAR EHRD 130325Z AUTO 04003KT 1300 R06/1900D BR NCD 06/06 Q1008
NOSIG=

ZCZC
SA130325 EHGR     GILZE-RIJEN/GILZE-RIJEN   NLD   14 m.
METAR EHGR 130325Z AUTO 08001KT 3200 BR BKN100 06/06 Q1008 YLO=

ZCZC
SA130325 EHEH     EINDHOVEN/EINDHOVEN   NLD   22 m.
METAR EHEH 130325Z AUTO 08003KT 360V080 1200 BR SCT220 07/07 Q1008 AMB=

ZCZC
SA130325 EHVK     VOLKEL/VOLKEL   NLD   21 m.
METAR EHVK 130325Z AUTO 08002KT 2900 BR OVC210 07/07 Q1008 YLO=

ZCZC
SA130325 EHBK     MAASTRICHT/MAASTRICHT-AACHEN   NLD   114 m.
METAR EHBK 130325Z AUTO 16003KT 9999 NSC 07/05 Q1008=

ZCZC
SA130325 EHFZ     F16-A   NLD   43 m.
METAR EHFZ 130325Z NIL=

ZCZC
SA130325 EHKV     K14-FA-1C   NLD   41 m.
METAR EHKV 130325Z AUTO 13011KT 9999 NSC 10/07 Q1009=

ZCZC
SA130325 EHMG     L9-FF-1   NLD   44 m.
METAR EHMG 130325Z AUTO 11003KT 9999 NSC 12/10 Q1011=

ZCZC
SA130325 EHMA     AWG-1   NLD   40 m.
METAR EHMA 130325Z AUTO 09004KT 360V170 9999 NSC 10/09 Q1010=

ZCZC
SA130325 EHDV     D15-FA-1   NLD   42 m.
METAR EHDV 130325Z AUTO 14005KT 9999 NSC 09/08 Q1010=

ZCZC
SA130325 EHAK     A12-CPP   NLD   48 m.
METAR EHAK 130325Z AUTO 01005KT 330V090 9999 FEW011/// 08/06 Q1010=

ZCZC
SA130325 EHQE     HOORN-A   NLD   50 m.
METAR EHQE 130325Z AUTO 05009KT 9999 NCD 10/09 Q1009=

ZCZC
SA130325 EHJA     J6-A   NLD   45 m.
METAR EHJA 130325Z AUTO 12008KT 9999 NSC 09/08 Q1009=

ZCZC
SA130325 EHPG     P11-B   NLD   41 m.
METAR EHPG 130325Z AUTO 10013KT 9999 NCD 10/08 Q1008=

ZCZC
SA130325 EHHW     BUITENGAATS/BG-OHVS2      42 m.
METAR EHHW 130325Z AUTO 03005KT 0900 FG SCT000/// 07/07 Q1010=

13/05/2021 05.30 uur LT